createdAt,value
2022-11-24T00:01:17.699Z,1.52
2022-11-24T00:03:46.619Z,1.54
2022-11-24T00:06:15.701Z,1.52
2022-11-24T00:08:44.894Z,1.61
2022-11-24T00:11:20.006Z,1.52
2022-11-24T00:13:47.790Z,1.56
2022-11-24T00:16:19.274Z,1.58
2022-11-24T00:18:47.897Z,1.56
2022-11-24T00:21:16.017Z,1.63
2022-11-24T00:23:43.739Z,1.62
2022-11-24T00:26:16.356Z,1.66
2022-11-24T00:28:44.095Z,1.72
2022-11-24T00:31:17.835Z,1.70
2022-11-24T00:33:46.554Z,1.69
2022-11-24T00:36:14.331Z,1.73
2022-11-24T00:38:41.928Z,1.73
2022-11-24T00:41:09.014Z,1.75
2022-11-24T00:43:35.977Z,1.76
2022-11-24T00:46:03.126Z,1.65
2022-11-24T00:48:31.047Z,1.78
2022-11-24T00:50:59.955Z,1.83
2022-11-24T00:53:26.907Z,1.80
2022-11-24T00:55:54.318Z,1.78
2022-11-24T00:58:21.721Z,1.79
2022-11-24T01:00:48.914Z,1.83
2022-11-24T01:03:16.959Z,1.82
2022-11-24T01:05:45.228Z,1.90
2022-11-24T01:08:12.676Z,1.90
2022-11-24T01:10:39.487Z,1.92
2022-11-24T01:13:06.275Z,1.86
2022-11-24T01:15:35.667Z,1.92
2022-11-24T01:18:03.218Z,1.85
2022-11-24T01:20:30.261Z,1.85
2022-11-24T01:22:57.059Z,1.86
2022-11-24T01:25:23.740Z,1.80
2022-11-24T01:27:50.509Z,1.78
2022-11-24T01:30:17.555Z,1.80
2022-11-24T01:32:44.323Z,1.85
2022-11-24T01:35:11.036Z,1.99
2022-11-24T01:37:37.714Z,1.98
2022-11-24T01:40:05.677Z,1.95
2022-11-24T01:42:50.909Z,1.87
2022-11-24T01:45:40.815Z,1.86
2022-11-24T01:48:16.386Z,1.96
2022-11-24T01:50:43.559Z,1.98
2022-11-24T01:53:12.324Z,1.90
2022-11-24T01:55:39.670Z,1.89
2022-11-24T01:58:12.632Z,1.85
2022-11-24T02:00:42.511Z,1.95
2022-11-24T02:03:11.588Z,1.93
2022-11-24T02:05:46.223Z,1.93
2022-11-24T02:08:41.102Z,1.95
2022-11-24T02:11:07.884Z,1.87
2022-11-24T02:13:36.894Z,1.89
2022-11-24T02:16:05.137Z,1.87
2022-11-24T02:18:31.947Z,1.90
2022-11-24T02:20:59.728Z,1.85
2022-11-24T02:24:00.323Z,1.86
2022-11-24T02:26:41.603Z,1.85
2022-11-24T02:29:10.394Z,1.93
2022-11-24T02:31:37.819Z,1.93
2022-11-24T02:34:04.572Z,1.85
2022-11-24T02:36:31.210Z,1.89
2022-11-24T02:38:58.014Z,1.86
2022-11-24T02:41:26.972Z,1.83
2022-11-24T02:43:59.786Z,1.86
2022-11-24T02:46:26.496Z,1.83
2022-11-24T02:48:53.441Z,1.86
2022-11-24T02:51:20.325Z,1.79
2022-11-24T02:53:46.960Z,1.87
2022-11-24T02:56:13.620Z,1.83
2022-11-24T02:58:40.267Z,1.82
2022-11-24T03:01:07.000Z,1.83
2022-11-24T03:03:33.857Z,1.85
2022-11-24T03:06:00.506Z,1.86
2022-11-24T03:08:27.169Z,1.83
2022-11-24T03:10:54.533Z,1.72
2022-11-24T03:13:21.119Z,1.72
2022-11-24T03:15:47.842Z,1.72
2022-11-24T03:18:15.039Z,1.70
2022-11-24T03:20:41.661Z,1.73
2022-11-24T03:23:08.282Z,1.66
2022-11-24T03:25:34.978Z,1.66
2022-11-24T03:28:01.676Z,1.66
2022-11-24T03:30:28.344Z,1.72
2022-11-24T03:32:54.968Z,1.68
2022-11-24T03:35:22.761Z,1.62
2022-11-24T03:37:49.822Z,1.59
2022-11-24T03:40:17.984Z,1.59
2022-11-24T03:42:44.747Z,1.58
2022-11-24T03:45:38.061Z,1.58
2022-11-24T03:47:58.127Z,1.65
2022-11-24T03:50:25.001Z,1.70
2022-11-24T03:52:51.614Z,1.66
2022-11-24T03:55:18.290Z,1.69
2022-11-24T03:57:45.030Z,1.65
2022-11-24T04:00:12.051Z,1.73
2022-11-24T04:02:38.832Z,1.69
2022-11-24T04:05:06.125Z,1.58
2022-11-24T04:07:32.922Z,1.55
2022-11-24T04:09:59.614Z,1.69
2022-11-24T04:12:44.083Z,1.69
2022-11-24T04:15:15.981Z,1.62
2022-11-24T04:17:43.434Z,1.68
2022-11-24T04:20:11.647Z,1.56
2022-11-24T04:22:38.959Z,1.52
2022-11-24T04:25:06.820Z,1.58
2022-11-24T04:27:34.339Z,1.63
2022-11-24T04:30:01.114Z,1.58
2022-11-24T04:32:27.786Z,1.59
2022-11-24T04:34:54.355Z,1.55
2022-11-24T04:37:20.991Z,1.61
2022-11-24T04:39:47.647Z,1.55
2022-11-24T04:42:14.290Z,1.54
2022-11-24T04:44:40.893Z,1.47
2022-11-24T04:47:07.785Z,1.48
2022-11-24T04:49:34.329Z,1.42
2022-11-24T04:52:01.008Z,1.41
2022-11-24T04:54:27.678Z,1.42
2022-11-24T04:56:54.365Z,1.37
2022-11-24T04:59:21.040Z,1.45
2022-11-24T05:01:47.806Z,1.45
2022-11-24T05:04:16.027Z,1.40
2022-11-24T05:06:42.762Z,1.44
2022-11-24T05:09:16.990Z,1.37
2022-11-24T05:11:44.251Z,1.38
2022-11-24T05:14:10.831Z,1.41
2022-11-24T05:16:37.841Z,1.40
2022-11-24T05:19:04.745Z,1.41
2022-11-24T05:21:31.573Z,1.44
2022-11-24T05:23:58.113Z,1.45
2022-11-24T05:26:24.869Z,1.44
2022-11-24T05:28:51.350Z,1.44
2022-11-24T05:31:18.023Z,1.41
2022-11-24T05:33:45.641Z,1.38
2022-11-24T05:36:32.218Z,1.44
2022-11-24T05:38:58.803Z,1.41
2022-11-24T05:41:25.735Z,1.44
2022-11-24T05:43:52.355Z,1.42
2022-11-24T05:46:19.077Z,1.49
2022-11-24T05:48:45.693Z,1.47
2022-11-24T05:51:12.254Z,1.37
2022-11-24T05:53:38.968Z,1.40
2022-11-24T05:56:05.874Z,1.35
2022-11-24T05:58:32.424Z,1.35
2022-11-24T06:00:59.009Z,1.37
2022-11-24T06:03:25.548Z,1.28
2022-11-24T06:05:52.218Z,1.41
2022-11-24T06:08:18.812Z,1.41
2022-11-24T06:10:45.417Z,1.41
2022-11-24T06:13:12.153Z,1.32
2022-11-24T06:15:40.322Z,1.35
2022-11-24T06:18:06.949Z,1.32
2022-11-24T06:20:33.645Z,1.31
2022-11-24T06:23:00.975Z,1.40
2022-11-24T06:25:28.138Z,1.28
2022-11-24T06:27:54.952Z,1.35
2022-11-24T06:30:21.587Z,1.45
2022-11-24T06:32:49.988Z,1.37
2022-11-24T06:35:17.222Z,1.41
2022-11-24T06:37:43.832Z,1.37
2022-11-24T06:40:10.801Z,1.31
2022-11-24T06:42:37.605Z,1.35
2022-11-24T06:45:09.119Z,1.45
2022-11-24T06:47:36.045Z,1.49
2022-11-24T06:50:02.681Z,1.45
2022-11-24T06:52:29.245Z,1.42
2022-11-24T06:54:57.139Z,1.52
2022-11-24T06:57:23.688Z,1.45
2022-11-24T06:59:50.402Z,1.48
2022-11-24T07:02:17.001Z,1.41
2022-11-24T07:04:43.612Z,1.38
2022-11-24T07:07:10.197Z,1.38
2022-11-24T07:09:36.778Z,1.45
2022-11-24T07:12:03.545Z,1.52
2022-11-24T07:14:30.044Z,1.51
2022-11-24T07:16:56.638Z,1.56
2022-11-24T07:19:25.072Z,1.49
2022-11-24T07:21:52.000Z,1.45
2022-11-24T07:24:18.825Z,1.44
2022-11-24T07:26:45.472Z,1.51
2022-11-24T07:29:12.142Z,1.44
2022-11-24T07:31:39.138Z,1.41
2022-11-24T07:34:06.206Z,1.38
2022-11-24T07:36:32.748Z,1.37
2022-11-24T07:38:59.558Z,1.41
2022-11-24T07:41:26.173Z,1.49
2022-11-24T07:43:53.004Z,1.51
2022-11-24T07:46:20.206Z,1.54
2022-11-24T07:48:47.317Z,1.52
2022-11-24T07:51:14.145Z,1.42
2022-11-24T07:53:41.064Z,1.48
2022-11-24T07:56:09.464Z,1.48
2022-11-24T07:58:37.487Z,1.49
2022-11-24T08:01:15.606Z,1.47
2022-11-24T08:03:43.593Z,1.48
2022-11-24T08:06:32.252Z,1.58
2022-11-24T08:08:57.932Z,1.61
2022-11-24T08:11:25.231Z,1.55
2022-11-24T08:13:51.830Z,1.52
2022-11-24T08:16:19.912Z,1.49
2022-11-24T08:18:55.306Z,1.56
2022-11-24T08:21:23.403Z,1.63
2022-11-24T08:23:54.354Z,1.61
2022-11-24T08:26:20.923Z,1.62
2022-11-24T08:28:48.006Z,1.62
2022-11-24T08:31:19.108Z,1.73
2022-11-24T08:33:46.599Z,1.72
2022-11-24T08:36:19.237Z,1.87
2022-11-24T08:38:46.152Z,1.93
2022-11-24T08:41:16.015Z,1.90
2022-11-24T08:43:43.030Z,1.90
2022-11-24T08:46:12.979Z,1.95
2022-11-24T08:48:40.008Z,2.06
2022-11-24T08:51:13.873Z,2.06
2022-11-24T08:53:41.700Z,2.16
2022-11-24T08:56:10.009Z,2.21
2022-11-24T08:58:37.419Z,2.26
2022-11-24T09:01:12.569Z,2.24
2022-11-24T09:03:43.375Z,2.20
2022-11-24T09:06:13.418Z,2.31
2022-11-24T09:08:40.541Z,2.42
2022-11-24T09:11:12.351Z,2.38
2022-11-24T09:13:39.862Z,2.38
2022-11-24T09:16:09.690Z,2.26
2022-11-24T09:18:37.142Z,2.34
2022-11-24T09:21:12.357Z,2.42
2022-11-24T09:23:39.619Z,2.51
2022-11-24T09:26:14.950Z,2.58
2022-11-24T09:28:41.622Z,2.72
2022-11-24T09:31:11.473Z,2.72
2022-11-24T09:33:38.689Z,2.64
2022-11-24T09:36:05.657Z,2.66
2022-11-24T09:38:32.674Z,2.78
2022-11-24T09:41:37.777Z,2.88
2022-11-24T09:44:37.855Z,3.01
2022-11-24T09:47:08.153Z,2.96
2022-11-24T09:49:55.809Z,3.06
2022-11-24T09:52:42.590Z,3.10
2022-11-24T09:55:43.458Z,3.16
2022-11-24T09:58:28.982Z,3.20
2022-11-24T10:00:56.801Z,3.26
2022-11-24T10:03:33.092Z,3.23
2022-11-24T10:06:04.247Z,3.33
2022-11-24T10:08:47.400Z,3.39
2022-11-24T10:11:16.603Z,3.47
2022-11-24T10:14:01.641Z,3.57
2022-11-24T10:16:52.619Z,3.64
2022-11-24T10:19:21.861Z,3.69
2022-11-24T10:21:59.626Z,3.69
2022-11-24T10:24:35.071Z,3.70
2022-11-24T10:27:10.596Z,3.87
2022-11-24T10:29:41.959Z,4.03
2022-11-24T10:32:21.988Z,4.02
2022-11-24T10:34:51.953Z,4.11
2022-11-24T10:37:23.675Z,4.21
2022-11-24T10:40:56.086Z,4.21
2022-11-24T10:43:10.228Z,4.38
2022-11-24T10:45:39.247Z,4.49
2022-11-24T10:48:25.701Z,4.60
2022-11-24T10:51:11.888Z,4.53
2022-11-24T10:53:41.088Z,4.39
2022-11-24T10:56:07.764Z,4.32
2022-11-24T10:58:39.097Z,4.35
2022-11-24T11:01:14.901Z,4.35
2022-11-24T11:04:01.457Z,4.31
2022-11-24T11:06:30.849Z,4.36
2022-11-24T11:09:06.393Z,4.43
2022-11-24T11:11:34.881Z,4.40
2022-11-24T11:14:04.752Z,4.38
2022-11-24T11:16:47.449Z,4.28
2022-11-24T11:19:55.472Z,4.26
2022-11-24T11:22:35.779Z,4.26
2022-11-24T11:25:07.227Z,4.29
2022-11-24T11:27:33.825Z,4.29
2022-11-24T11:36:11.558Z,4.48
2022-11-24T11:38:40.341Z,4.56
2022-11-24T11:41:17.063Z,4.59
2022-11-24T11:43:45.778Z,4.67
2022-11-24T11:46:16.280Z,4.80
2022-11-24T11:48:46.516Z,4.95
2022-11-24T11:51:31.283Z,4.97
2022-11-24T11:54:13.291Z,4.94
2022-11-24T11:56:45.025Z,4.90
2022-11-24T11:59:17.426Z,4.93
2022-11-24T12:01:52.886Z,4.90
2022-11-24T12:04:44.075Z,4.95
2022-11-24T12:07:31.588Z,5.01
2022-11-24T12:09:58.146Z,5.07
2022-11-24T12:12:39.693Z,5.18
2022-11-24T12:15:30.312Z,5.12
2022-11-24T12:18:03.812Z,5.24
2022-11-24T12:20:37.525Z,5.27
2022-11-24T12:23:16.341Z,5.14
2022-11-24T12:26:16.995Z,5.17
2022-11-24T12:28:43.503Z,5.11
2022-11-24T12:31:31.995Z,5.15
2022-11-24T12:34:01.382Z,5.07
2022-11-24T12:36:58.825Z,5.07
2022-11-24T12:39:34.408Z,5.05
2022-11-24T12:42:19.433Z,5.05
2022-11-24T12:44:52.194Z,5.10
2022-11-24T12:47:25.024Z,5.18
2022-11-24T12:50:14.607Z,5.18
2022-11-24T12:52:48.485Z,5.22
2022-11-24T12:55:21.031Z,5.28
2022-11-24T12:58:15.543Z,5.25
2022-11-24T13:01:00.501Z,5.28
2022-11-24T13:04:04.347Z,5.25
2022-11-24T13:06:52.456Z,5.28
2022-11-24T13:09:19.975Z,5.25
2022-11-24T13:11:48.950Z,5.21
2022-11-24T13:14:16.821Z,5.15
2022-11-24T13:17:29.665Z,5.12
2022-11-24T13:19:45.052Z,5.15
2022-11-24T13:22:18.209Z,5.24
2022-11-24T13:24:45.279Z,5.21
2022-11-24T13:27:26.580Z,5.30
2022-11-24T13:29:53.981Z,5.32
2022-11-24T13:32:23.173Z,5.31
2022-11-24T13:34:55.048Z,5.31
2022-11-24T13:37:35.309Z,5.39
2022-11-24T13:40:11.399Z,5.31
2022-11-24T13:43:02.503Z,5.28
2022-11-24T13:45:49.198Z,5.25
2022-11-24T13:48:22.547Z,5.21
2022-11-24T13:50:58.104Z,5.18
2022-11-24T13:53:35.716Z,5.15
2022-11-24T13:56:11.484Z,5.17
2022-11-24T13:58:40.365Z,5.17
2022-11-24T14:01:22.101Z,5.21
2022-11-24T14:04:28.627Z,5.14
2022-11-24T14:07:02.438Z,5.14
2022-11-24T14:09:43.959Z,5.15
2022-11-24T14:12:14.933Z,5.15
2022-11-24T14:14:42.696Z,5.18
2022-11-24T14:17:20.949Z,5.18
2022-11-24T14:19:50.077Z,5.17
2022-11-24T14:22:17.194Z,5.17
2022-11-24T14:24:47.492Z,5.14
2022-11-24T14:27:16.772Z,5.12
2022-11-24T14:30:01.362Z,5.15
2022-11-24T14:32:28.187Z,5.10
2022-11-24T14:34:55.552Z,5.14
2022-11-24T14:37:22.665Z,5.14
2022-11-24T14:39:49.320Z,5.10
2022-11-24T14:42:21.932Z,5.10
2022-11-24T14:45:02.941Z,5.07
2022-11-24T14:47:44.284Z,5.05
2022-11-24T14:50:16.230Z,5.00
2022-11-24T14:52:51.126Z,4.98
2022-11-24T14:55:28.986Z,4.95
2022-11-24T14:57:56.032Z,4.94
2022-11-24T15:00:31.172Z,4.94
2022-11-24T15:03:00.919Z,4.91
2022-11-24T15:05:55.061Z,4.91
2022-11-24T15:08:24.046Z,4.94
2022-11-24T15:11:00.085Z,4.91
2022-11-24T15:13:37.023Z,4.91
2022-11-24T15:16:07.758Z,4.87
2022-11-24T15:18:48.097Z,4.85
2022-11-24T15:21:19.178Z,4.79
2022-11-24T15:24:24.256Z,4.74
2022-11-24T15:26:59.075Z,4.70
2022-11-24T15:29:25.697Z,4.69
2022-11-24T15:31:53.059Z,4.69
2022-11-24T15:34:19.848Z,4.66
2022-11-24T15:36:46.734Z,4.63
2022-11-24T15:39:13.313Z,4.64
2022-11-24T15:41:40.671Z,4.62
2022-11-24T15:44:08.598Z,4.60
2022-11-24T15:46:38.524Z,4.62
2022-11-24T15:49:06.535Z,4.60
2022-11-24T15:51:33.910Z,4.59
2022-11-24T15:54:01.597Z,4.62
2022-11-24T15:56:34.461Z,4.63
2022-11-24T15:59:02.004Z,4.63
2022-11-24T16:01:32.419Z,4.63
2022-11-24T16:03:59.998Z,4.62
2022-11-24T16:06:26.550Z,4.64
2022-11-24T16:08:56.047Z,4.62
2022-11-24T16:11:23.190Z,4.81
2022-11-24T16:13:53.476Z,4.73
2022-11-24T16:16:22.586Z,4.70
2022-11-24T16:18:49.139Z,4.66
2022-11-24T16:21:15.924Z,4.64
2022-11-24T16:23:42.723Z,4.66
2022-11-24T16:26:10.026Z,4.62
2022-11-24T16:28:37.264Z,4.57
2022-11-24T16:31:04.215Z,4.53
2022-11-24T16:33:31.143Z,4.53
2022-11-24T16:35:57.847Z,4.53
2022-11-24T16:38:24.656Z,4.54
2022-11-24T16:40:56.192Z,4.57
2022-11-24T16:43:24.454Z,4.59
2022-11-24T16:46:16.988Z,4.67
2022-11-24T16:48:45.029Z,4.67
2022-11-24T16:51:12.248Z,4.67
2022-11-24T16:53:39.605Z,4.62
2022-11-24T16:56:06.644Z,4.62
2022-11-24T16:58:37.090Z,4.54
2022-11-24T17:01:08.255Z,4.59
2022-11-24T17:03:38.075Z,4.59
2022-11-24T17:06:06.667Z,4.59
2022-11-24T17:08:34.870Z,4.60
2022-11-24T17:11:16.069Z,4.60
2022-11-24T17:13:43.500Z,4.59
2022-11-24T17:16:14.933Z,4.59
2022-11-24T17:18:41.672Z,4.62
2022-11-24T17:21:12.812Z,4.62
2022-11-24T17:23:42.833Z,4.66
2022-11-24T17:26:17.269Z,4.60
2022-11-24T17:28:44.389Z,4.62
2022-11-24T17:31:27.341Z,4.60
2022-11-24T17:33:58.476Z,4.54
2022-11-24T17:36:26.101Z,4.50
2022-11-24T17:38:52.680Z,4.43
2022-11-24T17:41:20.466Z,4.35
2022-11-24T17:43:51.407Z,4.28
2022-11-24T17:46:18.785Z,4.22
2022-11-24T17:48:46.660Z,4.16
2022-11-24T17:51:15.851Z,4.11
2022-11-24T17:53:45.333Z,4.05
2022-11-24T17:56:17.361Z,4.02
2022-11-24T17:58:44.430Z,4.01
2022-11-24T18:01:12.608Z,3.94
2022-11-24T18:03:40.429Z,3.97
2022-11-24T18:06:09.831Z,3.95
2022-11-24T18:08:38.125Z,3.92
2022-11-24T18:11:10.024Z,3.97
2022-11-24T18:16:24.460Z,4.01
2022-11-24T18:19:07.268Z,3.99
2022-11-24T18:21:36.025Z,4.03
2022-11-24T18:24:03.094Z,4.11
2022-11-24T18:26:29.686Z,4.12
2022-11-24T18:28:56.416Z,4.15
2022-11-24T18:31:23.510Z,4.13
2022-11-24T18:33:50.100Z,4.12
2022-11-24T18:36:19.545Z,4.13
2022-11-24T18:38:46.247Z,4.11
2022-11-24T18:41:14.914Z,4.11
2022-11-24T18:43:41.832Z,4.12
2022-11-24T18:46:12.144Z,4.09
2022-11-24T18:48:38.799Z,4.02
2022-11-24T18:51:05.854Z,3.95
2022-11-24T18:53:32.395Z,3.90
2022-11-24T18:56:04.516Z,3.80
2022-11-24T18:58:32.821Z,3.78
2022-11-24T19:01:14.581Z,3.67
2022-11-24T19:03:49.012Z,3.60
2022-11-24T19:06:20.086Z,3.50
2022-11-24T19:08:47.559Z,3.46
2022-11-24T19:11:22.841Z,3.33
2022-11-24T19:13:50.397Z,3.23
2022-11-24T19:16:19.691Z,3.09
2022-11-24T19:18:53.109Z,2.99
2022-11-24T19:21:21.100Z,2.95
2022-11-24T19:23:47.690Z,2.88
2022-11-24T19:26:14.233Z,2.82
2022-11-24T19:28:40.850Z,2.72
2022-11-24T19:31:10.542Z,2.64
2022-11-24T19:33:37.727Z,2.54
2022-11-24T19:36:05.571Z,2.45
2022-11-24T19:38:33.606Z,2.40
2022-11-24T19:41:11.891Z,2.33
2022-11-24T19:43:39.143Z,2.26
2022-11-24T19:46:14.026Z,2.17
2022-11-24T19:48:43.213Z,2.09
2022-11-24T19:51:18.948Z,2.02
2022-11-24T19:53:46.186Z,1.93
2022-11-24T19:56:16.257Z,1.82
2022-11-24T19:58:43.139Z,1.78
2022-11-24T20:01:19.009Z,1.72
2022-11-24T20:03:49.144Z,1.62
2022-11-24T20:06:16.196Z,1.61
2022-11-24T20:08:43.200Z,1.56
2022-11-24T20:11:15.524Z,1.55
2022-11-24T20:13:44.504Z,1.47
2022-11-24T20:16:15.455Z,1.42
2022-11-24T20:18:44.126Z,1.41
2022-11-24T20:21:18.719Z,1.38
2022-11-24T20:23:47.135Z,1.37
2022-11-24T20:26:19.671Z,1.35
2022-11-24T20:28:47.102Z,1.31
2022-11-24T20:31:16.955Z,1.26
2022-11-24T20:33:45.005Z,1.21
2022-11-24T20:36:14.117Z,1.34
2022-11-24T20:38:41.785Z,1.44
2022-11-24T20:41:14.404Z,1.40
2022-11-24T20:43:42.677Z,1.32
2022-11-24T20:46:12.904Z,1.27
2022-11-24T20:48:40.007Z,1.20
2022-11-24T20:51:16.697Z,1.16
2022-11-24T20:53:43.640Z,1.18
2022-11-24T20:56:13.687Z,1.18
2022-11-24T20:58:40.827Z,1.13
2022-11-24T21:01:09.134Z,1.10
2022-11-24T21:03:41.412Z,1.00
2022-11-24T21:06:10.657Z,0.94
2022-11-24T21:08:38.783Z,0.84
2022-11-24T21:11:06.740Z,0.76
2022-11-24T21:13:35.319Z,0.69
2022-11-24T21:16:28.121Z,0.63
2022-11-24T21:18:57.287Z,0.60
2022-11-24T21:21:25.637Z,0.55
2022-11-24T21:23:52.580Z,0.49
2022-11-24T21:26:19.573Z,0.44
2022-11-24T21:28:47.455Z,0.39
2022-11-24T21:31:19.437Z,0.37
2022-11-24T21:33:48.222Z,0.32
2022-11-24T21:36:17.729Z,0.28
2022-11-24T21:38:58.695Z,0.22
2022-11-24T21:41:28.203Z,0.21
2022-11-24T21:43:58.054Z,0.15
2022-11-24T21:46:25.152Z,0.12
2022-11-24T21:48:51.920Z,0.08
2022-11-24T21:51:21.307Z,0.05
2022-11-24T21:53:48.464Z,0.01
2022-11-24T21:56:20.775Z,0.00
2022-11-24T21:58:50.118Z,0.00
2022-11-24T22:01:18.790Z,0.08
2022-11-24T22:03:46.080Z,0.19
2022-11-24T22:06:13.571Z,0.26
2022-11-24T22:08:40.835Z,0.39
2022-11-24T22:11:22.814Z,0.52
2022-11-24T22:13:50.196Z,0.65
2022-11-24T22:16:24.289Z,0.76
2022-11-24T22:18:51.338Z,0.87
2022-11-24T22:21:23.659Z,0.94
2022-11-24T22:23:51.477Z,1.04
2022-11-24T22:26:20.540Z,1.13
2022-11-24T22:28:47.834Z,1.18
2022-11-24T22:31:20.844Z,1.31
2022-11-24T22:33:48.209Z,1.37
2022-11-24T22:36:16.430Z,1.45
2022-11-24T22:38:43.401Z,1.52
2022-11-24T22:41:15.186Z,1.61
2022-11-24T22:43:43.320Z,1.66
2022-11-24T22:46:18.176Z,1.76
2022-11-24T22:48:46.260Z,1.85
2022-11-24T22:51:17.823Z,1.90
2022-11-24T22:53:48.706Z,1.96
2022-11-24T22:56:16.316Z,2.06
2022-11-24T22:58:43.295Z,2.09
2022-11-24T23:01:18.532Z,2.13
2022-11-24T23:03:45.958Z,2.17
2022-11-24T23:06:15.120Z,2.19
2022-11-24T23:08:42.120Z,2.24
2022-11-24T23:11:14.844Z,2.29
2022-11-24T23:13:42.115Z,2.33
2022-11-24T23:16:15.262Z,2.40
2022-11-24T23:18:42.736Z,2.44
2022-11-24T23:21:12.156Z,2.45
2022-11-24T23:23:40.337Z,2.47
2022-11-24T23:26:10.434Z,2.50
2022-11-24T23:28:37.872Z,2.52
2022-11-24T23:31:15.719Z,2.57
2022-11-24T23:33:42.923Z,2.62
2022-11-24T23:36:14.932Z,2.64
2022-11-24T23:38:42.361Z,2.65
2022-11-24T23:41:11.575Z,2.66
2022-11-24T23:43:40.154Z,2.66
2022-11-24T23:46:09.433Z,2.68
2022-11-24T23:48:36.579Z,2.71
2022-11-24T23:51:08.218Z,2.75
2022-11-24T23:53:36.063Z,2.78
2022-11-24T23:56:03.668Z,2.78
2022-11-24T23:58:31.792Z,2.78
